createdAt,value
2023-05-01T00:00:53.024Z,1.43
2023-05-01T00:01:53.000Z,1.67
2023-05-01T00:02:53.075Z,1.64
2023-05-01T00:03:53.222Z,1.52
2023-05-01T00:04:53.077Z,1.50
2023-05-01T00:05:52.999Z,1.78
2023-05-01T00:06:53.053Z,1.77
2023-05-01T00:07:53.002Z,1.49
2023-05-01T00:08:52.996Z,1.55
2023-05-01T00:09:52.988Z,2.07
2023-05-01T00:10:53.010Z,1.62
2023-05-01T00:11:53.025Z,1.75
2023-05-01T00:12:53.088Z,1.54
2023-05-01T00:13:53.178Z,1.66
2023-05-01T00:14:53.210Z,1.86
2023-05-01T00:15:53.285Z,1.46
2023-05-01T00:16:53.382Z,1.36
2023-05-01T00:17:53.451Z,1.56
2023-05-01T00:18:53.497Z,1.88
2023-05-01T00:19:53.648Z,1.36
2023-05-01T00:20:53.644Z,1.83
2023-05-01T00:21:53.694Z,2.11
2023-05-01T00:22:53.769Z,1.30
2023-05-01T00:23:53.846Z,1.60
2023-05-01T00:24:53.911Z,1.78
2023-05-01T00:25:53.978Z,1.38
2023-05-01T00:26:54.079Z,1.76
2023-05-01T00:27:54.121Z,1.40
2023-05-01T00:28:54.184Z,1.89
2023-05-01T00:29:54.678Z,1.72
2023-05-01T00:30:54.336Z,1.25
2023-05-01T00:31:54.434Z,1.81
2023-05-01T00:32:54.507Z,1.65
2023-05-01T00:33:54.525Z,1.49
2023-05-01T00:34:54.596Z,1.55
2023-05-01T00:35:54.664Z,1.71
2023-05-01T00:36:54.740Z,1.55
2023-05-01T00:37:54.807Z,1.50
2023-05-01T00:38:54.876Z,1.78
2023-05-01T00:39:55.144Z,1.92
2023-05-01T00:40:54.981Z,1.67
2023-05-01T00:41:55.032Z,1.47
2023-05-01T00:42:55.125Z,1.84
2023-05-01T00:43:55.200Z,1.57
2023-05-01T00:44:55.261Z,1.47
2023-05-01T00:45:55.374Z,1.74
2023-05-01T00:46:55.390Z,1.61
2023-05-01T00:47:55.546Z,1.67
2023-05-01T00:48:55.525Z,1.59
2023-05-01T00:49:55.918Z,1.71
2023-05-01T00:50:55.667Z,1.45
2023-05-01T00:51:55.736Z,1.86
2023-05-01T00:52:55.803Z,1.54
2023-05-01T00:53:55.867Z,1.69
2023-05-01T00:54:55.943Z,1.88
2023-05-01T00:55:55.995Z,1.86
2023-05-01T00:56:56.076Z,1.80
2023-05-01T00:57:56.143Z,1.63
2023-05-01T00:58:56.244Z,1.47
2023-05-01T00:59:56.515Z,1.84
2023-05-01T01:00:56.407Z,1.80
2023-05-01T01:01:56.755Z,1.67
2023-05-01T01:02:56.553Z,1.74
2023-05-01T01:03:56.610Z,1.86
2023-05-01T01:04:56.665Z,1.69
2023-05-01T01:05:56.706Z,1.59
2023-05-01T01:06:56.720Z,1.68
2023-05-01T01:07:56.788Z,1.65
2023-05-01T01:08:56.851Z,1.63
2023-05-01T01:09:57.253Z,1.98
2023-05-01T01:10:57.011Z,1.92
2023-05-01T01:11:57.059Z,1.83
2023-05-01T01:12:57.125Z,1.88
2023-05-01T01:13:57.187Z,1.50
2023-05-01T01:14:57.274Z,1.51
2023-05-01T01:15:57.348Z,1.56
2023-05-01T01:16:57.479Z,1.80
2023-05-01T01:17:57.521Z,1.83
2023-05-01T01:18:57.508Z,1.28
2023-05-01T01:19:57.848Z,1.33
2023-05-01T01:20:57.649Z,1.79
2023-05-01T01:21:57.689Z,1.75
2023-05-01T01:22:57.754Z,1.45
2023-05-01T01:23:57.814Z,1.82
2023-05-01T01:24:57.889Z,1.15
2023-05-01T01:25:57.970Z,1.80
2023-05-01T01:26:58.033Z,1.71
2023-05-01T01:27:58.104Z,1.98
2023-05-01T01:28:58.140Z,1.52
2023-05-01T01:29:58.385Z,1.57
2023-05-01T01:30:58.312Z,1.84
2023-05-01T01:31:58.322Z,1.55
2023-05-01T01:32:58.404Z,1.68
2023-05-01T01:33:58.423Z,1.33
2023-05-01T01:34:58.467Z,1.38
2023-05-01T01:35:58.518Z,1.41
2023-05-01T01:36:58.562Z,1.43
2023-05-01T01:37:58.597Z,1.13
2023-05-01T01:38:58.647Z,1.97
2023-05-01T01:39:58.916Z,1.51
2023-05-01T01:40:58.782Z,1.65
2023-05-01T01:41:58.855Z,1.72
2023-05-01T01:42:58.928Z,1.82
2023-05-01T01:43:58.985Z,1.40
2023-05-01T01:44:59.045Z,1.67
2023-05-01T01:45:59.126Z,1.69
2023-05-01T01:46:59.351Z,1.29
2023-05-01T01:47:59.205Z,1.61
2023-05-01T01:48:59.273Z,1.47
2023-05-01T01:49:59.345Z,1.49
2023-05-01T01:50:59.403Z,1.55
2023-05-01T01:51:59.503Z,1.81
2023-05-01T01:52:59.510Z,1.94
2023-05-01T01:53:59.567Z,1.96
2023-05-01T01:54:59.612Z,1.45
2023-05-01T01:56:01.759Z,1.75
2023-05-01T01:56:59.710Z,1.43
2023-05-01T01:57:59.663Z,1.71
2023-05-01T01:58:59.651Z,1.69
2023-05-01T01:59:59.638Z,1.58
2023-05-01T02:00:59.649Z,1.70
2023-05-01T02:01:59.696Z,1.71
2023-05-01T02:02:59.771Z,1.64
2023-05-01T02:03:59.774Z,1.56
2023-05-01T02:04:59.630Z,1.54
2023-05-01T02:05:59.633Z,1.67
2023-05-01T02:06:59.620Z,1.61
2023-05-01T02:07:59.600Z,1.54
2023-05-01T02:08:59.597Z,1.37
2023-05-01T02:09:59.586Z,1.91
2023-05-01T02:11:01.773Z,1.63
2023-05-01T02:11:59.577Z,1.38
2023-05-01T02:12:59.580Z,1.40
2023-05-01T02:13:59.566Z,1.58
2023-05-01T02:14:59.556Z,1.37
2023-05-01T02:15:59.576Z,1.31
2023-05-01T02:16:59.538Z,1.32
2023-05-01T02:17:59.599Z,2.00
2023-05-01T02:18:59.656Z,1.91
2023-05-01T02:19:59.514Z,1.65
2023-05-01T02:20:59.513Z,1.19
2023-05-01T02:21:59.504Z,1.32
2023-05-01T02:22:59.489Z,1.12
2023-05-01T02:23:59.477Z,1.83
2023-05-01T02:24:59.473Z,1.88
2023-05-01T02:25:59.467Z,1.75
2023-05-01T02:26:59.499Z,1.60
2023-05-01T02:27:59.453Z,1.65
2023-05-01T02:28:59.441Z,1.45
2023-05-01T02:29:59.434Z,1.47
2023-05-01T02:30:59.429Z,1.43
2023-05-01T02:31:59.558Z,1.19
2023-05-01T02:32:59.468Z,1.28
2023-05-01T02:33:59.421Z,1.40
2023-05-01T02:34:59.413Z,1.56
2023-05-01T02:35:59.381Z,1.40
2023-05-01T02:36:59.365Z,1.56
2023-05-01T02:37:59.392Z,1.36
2023-05-01T02:38:59.460Z,1.68
2023-05-01T02:39:59.616Z,1.41
2023-05-01T02:40:59.599Z,1.66
2023-05-01T02:41:59.652Z,1.37
2023-05-01T02:42:59.725Z,1.28
2023-05-01T02:43:59.796Z,1.75
2023-05-01T02:44:59.833Z,1.92
2023-05-01T02:45:59.962Z,1.66
2023-05-01T02:47:00.080Z,1.82
2023-05-01T02:48:00.156Z,1.32
2023-05-01T02:49:00.117Z,1.58
2023-05-01T02:50:00.193Z,1.54
2023-05-01T02:51:00.254Z,1.69
2023-05-01T02:52:00.283Z,1.51
2023-05-01T02:53:00.343Z,1.73
2023-05-01T02:54:00.405Z,1.90
2023-05-01T02:55:00.451Z,1.64
2023-05-01T02:56:00.529Z,1.49
2023-05-01T02:57:00.591Z,1.44
2023-05-01T02:58:00.692Z,1.44
2023-05-01T02:59:00.720Z,1.32
2023-05-01T03:00:00.768Z,1.46
2023-05-01T03:01:00.879Z,1.33
2023-05-01T03:02:00.889Z,1.29
2023-05-01T03:03:00.966Z,1.58
2023-05-01T03:04:01.016Z,1.59
2023-05-01T03:05:01.056Z,1.67
2023-05-01T03:06:01.119Z,1.64
2023-05-01T03:07:01.173Z,1.47
2023-05-01T03:08:01.214Z,1.76
2023-05-01T03:09:01.241Z,1.40
2023-05-01T03:10:01.312Z,1.59
2023-05-01T03:11:01.366Z,1.53
2023-05-01T03:12:01.427Z,1.75
2023-05-01T03:13:01.486Z,1.58
2023-05-01T03:14:01.543Z,1.59
2023-05-01T03:15:01.603Z,1.42
2023-05-01T03:16:01.706Z,1.35
2023-05-01T03:17:01.717Z,1.59
2023-05-01T03:18:01.882Z,1.70
2023-05-01T03:19:01.862Z,1.22
2023-05-01T03:20:01.935Z,1.68
2023-05-01T03:21:01.993Z,1.40
2023-05-01T03:22:02.061Z,1.74
2023-05-01T03:23:02.206Z,1.76
2023-05-01T03:24:02.200Z,1.32
2023-05-01T03:25:02.292Z,1.65
2023-05-01T03:26:02.336Z,1.58
2023-05-01T03:27:02.389Z,1.67
2023-05-01T03:28:02.427Z,1.63
2023-05-01T03:29:02.496Z,1.48
2023-05-01T03:30:02.587Z,1.70
2023-05-01T03:31:02.635Z,1.62
2023-05-01T03:32:02.752Z,1.40
2023-05-01T03:33:02.778Z,1.65
2023-05-01T03:34:02.804Z,1.55
2023-05-01T03:35:02.899Z,1.26
2023-05-01T03:36:02.925Z,1.39
2023-05-01T03:37:02.995Z,1.32
2023-05-01T03:38:03.063Z,1.45
2023-05-01T03:39:03.175Z,1.19
2023-05-01T03:40:03.197Z,1.53
2023-05-01T03:41:03.261Z,1.50
2023-05-01T03:42:03.341Z,1.08
2023-05-01T03:43:03.396Z,1.80
2023-05-01T03:44:03.443Z,1.39
2023-05-01T03:45:03.498Z,1.61
2023-05-01T03:46:03.581Z,1.23
2023-05-01T03:47:03.625Z,1.55
2023-05-01T03:48:03.759Z,1.66
2023-05-01T03:49:04.548Z,1.69
2023-05-01T03:50:03.831Z,1.45
2023-05-01T03:51:03.902Z,1.62
2023-05-01T03:52:03.963Z,1.32
2023-05-01T03:53:04.016Z,1.44
2023-05-01T03:54:04.095Z,1.68
2023-05-01T03:55:04.162Z,1.48
2023-05-01T03:56:04.194Z,1.54
2023-05-01T03:57:04.228Z,1.63
2023-05-01T03:58:04.264Z,1.59
2023-05-01T03:59:04.330Z,1.48
2023-05-01T04:00:04.397Z,1.42
2023-05-01T04:01:04.459Z,1.15
2023-05-01T04:02:04.567Z,1.64
2023-05-01T04:03:04.745Z,1.68
2023-05-01T04:04:04.748Z,1.32
2023-05-01T04:05:04.680Z,1.49
2023-05-01T04:06:04.772Z,1.27
2023-05-01T04:07:04.787Z,1.60
2023-05-01T04:08:04.834Z,1.76
2023-05-01T04:09:04.871Z,1.37
2023-05-01T04:10:04.917Z,1.55
2023-05-01T04:11:05.011Z,1.13
2023-05-01T04:12:04.979Z,1.55
2023-05-01T04:13:05.023Z,1.31
2023-05-01T04:14:05.056Z,1.49
2023-05-01T04:15:05.098Z,1.57
2023-05-01T04:16:05.184Z,1.35
2023-05-01T04:17:05.197Z,1.63
2023-05-01T04:18:05.314Z,1.33
2023-05-01T04:19:05.255Z,1.26
2023-05-01T04:20:05.283Z,1.47
2023-05-01T04:21:05.322Z,1.68
2023-05-01T04:22:05.354Z,1.60
2023-05-01T04:23:05.399Z,1.49
2023-05-01T04:24:05.429Z,1.38
2023-05-01T04:25:05.493Z,1.47
2023-05-01T04:26:05.532Z,1.85
2023-05-01T04:27:05.621Z,1.40
2023-05-01T04:28:05.658Z,1.78
2023-05-01T04:29:05.714Z,1.43
2023-05-01T04:30:05.772Z,1.64
2023-05-01T04:31:05.830Z,1.71
2023-05-01T04:32:05.911Z,1.33
2023-05-01T04:33:05.917Z,1.29
2023-05-01T04:34:05.918Z,1.80
2023-05-01T04:35:05.954Z,1.38
2023-05-01T04:36:05.968Z,1.54
2023-05-01T04:37:05.983Z,1.76
2023-05-01T04:38:06.013Z,1.62
2023-05-01T04:39:06.025Z,1.74
2023-05-01T04:40:06.071Z,1.35
2023-05-01T04:41:06.134Z,1.34
2023-05-01T04:42:06.172Z,1.52
2023-05-01T04:43:06.222Z,1.47
2023-05-01T04:44:06.225Z,1.51
2023-05-01T04:45:06.283Z,1.39
2023-05-01T04:46:06.373Z,1.31
2023-05-01T04:47:06.466Z,1.50
2023-05-01T04:48:06.512Z,1.89
2023-05-01T04:49:06.493Z,1.59
2023-05-01T04:50:06.563Z,1.28
2023-05-01T04:51:06.605Z,1.55
2023-05-01T04:52:06.659Z,1.63
2023-05-01T04:53:06.733Z,1.64
2023-05-01T04:54:06.775Z,1.13
2023-05-01T04:55:06.813Z,1.32
2023-05-01T04:56:06.860Z,1.48
2023-05-01T04:57:07.082Z,1.56
2023-05-01T04:58:06.939Z,1.56
2023-05-01T04:59:06.991Z,1.16
2023-05-01T05:00:07.006Z,1.48
2023-05-01T05:01:07.055Z,1.50
2023-05-01T05:02:07.109Z,1.36
2023-05-01T05:03:07.201Z,1.50
2023-05-01T05:04:07.265Z,1.49
2023-05-01T05:05:07.188Z,1.16
2023-05-01T05:06:07.313Z,1.50
2023-05-01T05:07:07.266Z,1.56
2023-05-01T05:08:07.294Z,1.34
2023-05-01T05:09:07.351Z,1.39
2023-05-01T05:10:07.396Z,1.70
2023-05-01T05:11:07.456Z,1.53
2023-05-01T05:12:07.496Z,1.57
2023-05-01T05:13:07.511Z,1.94
2023-05-01T05:14:07.536Z,1.94
2023-05-01T05:15:07.617Z,2.22
2023-05-01T05:16:07.651Z,1.95
2023-05-01T05:17:07.653Z,1.92
2023-05-01T05:18:07.848Z,2.30
2023-05-01T05:19:07.728Z,1.85
2023-05-01T05:20:07.753Z,2.28
2023-05-01T05:21:07.764Z,1.89
2023-05-01T05:22:07.748Z,2.09
2023-05-01T05:23:08.545Z,2.02
2023-05-01T05:24:07.788Z,2.49
2023-05-01T05:25:07.783Z,2.04
2023-05-01T05:26:07.799Z,1.89
2023-05-01T05:27:07.789Z,2.76
2023-05-01T05:28:07.788Z,2.26
2023-05-01T05:29:07.785Z,2.53
2023-05-01T05:30:07.790Z,2.00
2023-05-01T05:31:07.820Z,2.55
2023-05-01T05:32:07.819Z,2.36
2023-05-01T05:33:07.900Z,2.41
2023-05-01T05:34:07.785Z,2.56
2023-05-01T05:35:07.811Z,2.24
2023-05-01T05:36:07.797Z,2.58
2023-05-01T05:37:07.804Z,2.31
2023-05-01T05:38:07.808Z,2.69
2023-05-01T05:39:07.809Z,2.60
2023-05-01T05:40:07.840Z,2.37
2023-05-01T05:41:07.829Z,2.60
2023-05-01T05:42:07.845Z,2.10
2023-05-01T05:43:07.852Z,2.47
2023-05-01T05:44:07.867Z,2.69
2023-05-01T05:45:07.888Z,2.83
2023-05-01T05:46:07.986Z,2.28
2023-05-01T05:47:07.924Z,3.04
2023-05-01T05:48:07.937Z,2.60
2023-05-01T05:49:07.933Z,3.13
2023-05-01T05:50:07.966Z,2.58
2023-05-01T05:51:07.969Z,2.92
2023-05-01T05:52:07.979Z,2.62
2023-05-01T05:53:07.985Z,2.79
2023-05-01T05:54:07.999Z,2.61
2023-05-01T05:55:08.015Z,3.43
2023-05-01T05:56:08.047Z,3.03
2023-05-01T05:57:08.070Z,2.78
2023-05-01T05:58:08.074Z,2.68
2023-05-01T05:59:08.095Z,2.51
2023-05-01T06:00:08.120Z,3.05
2023-05-01T06:01:08.141Z,2.78
2023-05-01T06:02:08.235Z,2.87
2023-05-01T06:03:08.317Z,2.65
2023-05-01T06:04:08.195Z,2.95
2023-05-01T06:05:08.276Z,2.85
2023-05-01T06:06:08.363Z,2.73
2023-05-01T06:07:08.262Z,3.11
2023-05-01T06:08:08.275Z,2.76
2023-05-01T06:09:08.301Z,3.09
2023-05-01T06:10:08.413Z,2.93
2023-05-01T06:11:08.351Z,2.63
2023-05-01T06:12:08.372Z,2.86
2023-05-01T06:13:13.367Z,3.34
2023-05-01T06:14:08.395Z,3.29
2023-05-01T06:15:08.388Z,3.01
2023-05-01T06:16:08.585Z,3.06
2023-05-01T06:17:08.384Z,3.09
2023-05-01T06:18:08.485Z,2.83
2023-05-01T06:19:08.403Z,2.67
2023-05-01T06:20:08.388Z,2.86
2023-05-01T06:21:08.402Z,2.95
2023-05-01T06:22:08.386Z,3.58
2023-05-01T06:23:08.393Z,3.39
2023-05-01T06:24:08.380Z,3.36
2023-05-01T06:25:08.373Z,3.07
2023-05-01T06:26:08.406Z,3.08
2023-05-01T06:27:08.384Z,3.20
2023-05-01T06:28:08.371Z,2.99
2023-05-01T06:29:08.364Z,3.36
2023-05-01T06:30:08.353Z,3.13
2023-05-01T06:31:08.393Z,3.54
2023-05-01T06:32:08.357Z,3.13
2023-05-01T06:33:08.399Z,3.25
2023-05-01T06:34:08.347Z,3.43
2023-05-01T06:35:08.372Z,3.12
2023-05-01T06:36:08.346Z,2.84
2023-05-01T06:37:08.341Z,3.60
2023-05-01T06:38:08.349Z,3.57
2023-05-01T06:39:08.331Z,3.12
2023-05-01T06:40:08.341Z,3.14
2023-05-01T06:41:08.337Z,3.38
2023-05-01T06:42:08.324Z,3.32
2023-05-01T06:43:08.324Z,3.50
2023-05-01T06:44:08.303Z,3.22
2023-05-01T06:45:08.309Z,3.57
2023-05-01T06:46:08.297Z,3.29
2023-05-01T06:47:08.365Z,3.17
2023-05-01T06:48:08.359Z,3.38
2023-05-01T06:49:08.283Z,3.61
2023-05-01T06:50:08.292Z,4.18
2023-05-01T06:51:08.314Z,3.89
2023-05-01T06:52:08.270Z,3.93
2023-05-01T06:53:08.264Z,3.31
2023-05-01T06:54:08.256Z,3.32
2023-05-01T06:55:08.251Z,3.94
2023-05-01T06:56:08.248Z,3.59
2023-05-01T06:57:08.279Z,3.48
2023-05-01T06:58:22.537Z,3.22
2023-05-01T06:59:08.303Z,3.21
2023-05-01T07:00:08.239Z,3.53
2023-05-01T07:01:08.264Z,3.44
2023-05-01T07:02:08.265Z,3.13
2023-05-01T07:03:08.291Z,3.57
2023-05-01T07:04:08.247Z,2.97
2023-05-01T07:05:08.244Z,3.21
2023-05-01T07:06:08.287Z,3.71
2023-05-01T07:07:08.243Z,3.35
2023-05-01T07:08:08.220Z,3.59
2023-05-01T07:09:08.219Z,2.88
2023-05-01T07:10:08.228Z,3.09
2023-05-01T07:11:08.223Z,3.33
2023-05-01T07:12:08.219Z,3.09
2023-05-01T07:13:08.612Z,3.09
2023-05-01T07:14:08.225Z,3.21
2023-05-01T07:15:08.217Z,2.81
2023-05-01T07:16:08.265Z,3.07
2023-05-01T07:17:08.218Z,3.12
2023-05-01T07:18:08.598Z,2.84
2023-05-01T07:19:08.222Z,3.87
2023-05-01T07:20:08.226Z,2.96
2023-05-01T07:21:08.221Z,3.22
2023-05-01T07:22:08.227Z,3.12
2023-05-01T07:23:08.262Z,3.53
2023-05-01T07:24:08.363Z,3.12
2023-05-01T07:25:08.239Z,3.33
2023-05-01T07:26:08.232Z,2.68
2023-05-01T07:27:08.227Z,3.06
2023-05-01T07:28:08.260Z,3.67
2023-05-01T07:29:08.211Z,4.83
2023-05-01T07:30:08.211Z,5.65
2023-05-01T07:31:08.205Z,8.47
2023-05-01T07:32:08.253Z,7.67
2023-05-01T07:33:08.242Z,6.21
2023-05-01T07:34:08.217Z,7.11
2023-05-01T07:35:08.198Z,6.70
2023-05-01T07:36:08.211Z,7.43
2023-05-01T07:37:08.207Z,7.37
2023-05-01T07:38:08.214Z,7.02
2023-05-01T07:39:08.237Z,6.59
2023-05-01T07:40:08.228Z,7.61
2023-05-01T07:41:08.244Z,6.39
2023-05-01T07:42:08.219Z,6.53
2023-05-01T07:43:08.203Z,6.84
2023-05-01T07:44:08.202Z,6.15
2023-05-01T07:45:08.199Z,6.84
2023-05-01T07:46:08.242Z,6.40
2023-05-01T07:47:08.187Z,6.23
2023-05-01T07:48:08.255Z,6.14
2023-05-01T07:49:08.183Z,5.64
2023-05-01T07:50:08.166Z,5.67
2023-05-01T07:51:08.184Z,5.99
2023-05-01T07:52:08.192Z,6.65
2023-05-01T07:53:08.166Z,6.27
2023-05-01T07:54:08.167Z,5.51
2023-05-01T07:55:08.179Z,5.49
2023-05-01T07:56:08.155Z,5.53
2023-05-01T07:57:08.140Z,4.98
2023-05-01T07:58:08.121Z,5.70
2023-05-01T07:59:08.122Z,4.83
2023-05-01T08:00:08.117Z,4.87
2023-05-01T08:01:08.109Z,5.06
2023-05-01T08:02:08.144Z,4.97
2023-05-01T08:03:08.242Z,4.21
2023-05-01T08:04:08.265Z,4.57
2023-05-01T08:05:08.098Z,4.68
2023-05-01T08:06:08.272Z,4.71
2023-05-01T08:07:08.103Z,4.00
2023-05-01T08:08:08.113Z,4.58
2023-05-01T08:09:08.117Z,4.48
2023-05-01T08:10:08.124Z,4.35
2023-05-01T08:11:08.158Z,4.18
2023-05-01T08:12:08.122Z,3.91
2023-05-01T08:13:08.150Z,4.20
2023-05-01T08:14:08.154Z,4.11
2023-05-01T08:15:08.159Z,3.62
2023-05-01T08:16:08.203Z,4.18
2023-05-01T08:17:08.213Z,3.84
2023-05-01T08:18:08.226Z,3.47
2023-05-01T08:19:08.203Z,3.95
2023-05-01T08:20:08.201Z,4.40
2023-05-01T08:21:08.202Z,3.73
2023-05-01T08:22:08.253Z,3.68
2023-05-01T08:23:08.226Z,3.46
2023-05-01T08:24:08.222Z,3.61
2023-05-01T08:25:08.233Z,4.01
2023-05-01T08:26:08.233Z,3.87
2023-05-01T08:27:08.269Z,3.13
2023-05-01T08:28:08.246Z,3.29
2023-05-01T08:29:08.243Z,3.08
2023-05-01T08:30:08.248Z,3.77
2023-05-01T08:31:08.313Z,2.89
2023-05-01T08:32:08.255Z,3.86
2023-05-01T08:33:08.276Z,3.93
2023-05-01T08:34:08.252Z,3.75
2023-05-01T08:35:08.257Z,3.10
2023-05-01T08:36:08.265Z,3.04
2023-05-01T08:37:08.263Z,3.00
2023-05-01T08:38:08.300Z,3.04
2023-05-01T08:39:08.262Z,3.51
2023-05-01T08:40:08.265Z,3.33
2023-05-01T08:41:08.276Z,3.13
2023-05-01T08:42:08.276Z,3.14
2023-05-01T08:43:08.330Z,2.97
2023-05-01T08:44:08.265Z,3.02
2023-05-01T08:45:08.263Z,2.82
2023-05-01T08:46:08.301Z,3.18
2023-05-01T08:47:08.426Z,3.17
2023-05-01T08:48:08.296Z,2.95
2023-05-01T08:49:08.274Z,3.53
2023-05-01T08:50:08.242Z,3.04
2023-05-01T08:51:08.244Z,2.91
2023-05-01T08:52:08.241Z,2.92
2023-05-01T08:53:08.231Z,2.89
2023-05-01T08:54:08.237Z,3.13
2023-05-01T08:55:08.238Z,3.03
2023-05-01T08:56:08.230Z,3.06
2023-05-01T08:57:10.223Z,2.83
2023-05-01T08:58:08.215Z,2.53
2023-05-01T08:59:08.229Z,3.17
2023-05-01T09:00:08.196Z,2.96
2023-05-01T09:01:08.234Z,2.94
2023-05-01T09:02:08.387Z,2.87
2023-05-01T09:03:08.365Z,2.57
2023-05-01T09:04:08.232Z,2.71
2023-05-01T09:05:08.157Z,2.45
2023-05-01T09:06:08.168Z,2.57
2023-05-01T09:07:08.139Z,2.49
2023-05-01T09:08:08.125Z,2.74
2023-05-01T09:09:08.122Z,2.46
2023-05-01T09:10:08.108Z,2.36
2023-05-01T09:11:08.103Z,2.82
2023-05-01T09:12:08.103Z,2.42
2023-05-01T09:13:08.096Z,2.91
2023-05-01T09:14:08.088Z,3.02
2023-05-01T09:15:08.103Z,2.42
2023-05-01T09:16:08.140Z,3.05
2023-05-01T09:17:08.055Z,3.00
2023-05-01T09:18:08.126Z,2.13
2023-05-01T09:19:08.037Z,2.73
2023-05-01T09:20:08.042Z,3.13
2023-05-01T09:21:08.013Z,2.49
2023-05-01T09:22:08.014Z,2.58
2023-05-01T09:23:08.019Z,2.46
2023-05-01T09:24:07.989Z,2.50
2023-05-01T09:25:07.976Z,2.57
2023-05-01T09:26:07.985Z,2.34
2023-05-01T09:27:07.967Z,2.71
2023-05-01T09:28:07.961Z,2.71
2023-05-01T09:29:07.965Z,2.69
2023-05-01T09:30:07.940Z,2.43
2023-05-01T09:31:07.964Z,2.62
2023-05-01T09:32:08.039Z,2.35
2023-05-01T09:33:08.050Z,2.17
2023-05-01T09:34:08.057Z,2.24
2023-05-01T09:35:08.065Z,2.38
2023-05-01T09:36:08.123Z,3.03
2023-05-01T09:37:08.167Z,2.57
2023-05-01T09:38:08.241Z,2.33
2023-05-01T09:39:08.291Z,2.56
2023-05-01T09:40:08.369Z,2.66
2023-05-01T09:41:08.409Z,3.01
2023-05-01T09:42:08.453Z,2.32
2023-05-01T09:43:10.513Z,2.35
2023-05-01T09:44:08.464Z,2.75
2023-05-01T09:45:08.452Z,2.70
2023-05-01T09:46:08.572Z,2.06
2023-05-01T09:47:08.450Z,3.06
2023-05-01T09:48:08.527Z,2.45
2023-05-01T09:49:08.420Z,2.62
2023-05-01T09:50:08.411Z,2.78
2023-05-01T09:51:08.396Z,2.33
2023-05-01T09:52:08.382Z,2.31
2023-05-01T09:53:08.407Z,2.44
2023-05-01T09:54:08.396Z,2.13
2023-05-01T09:55:08.362Z,2.30
2023-05-01T09:56:08.350Z,2.15
2023-05-01T09:57:08.334Z,2.14
2023-05-01T09:58:08.329Z,2.12
2023-05-01T09:59:08.328Z,2.09
2023-05-01T10:00:08.661Z,2.44
2023-05-01T10:01:08.347Z,2.26
2023-05-01T10:02:08.334Z,2.56
2023-05-01T10:03:08.727Z,2.12
2023-05-01T10:04:08.522Z,2.48
2023-05-01T10:05:08.372Z,2.26
2023-05-01T10:06:08.492Z,2.07
2023-05-01T10:07:08.499Z,2.32
2023-05-01T10:08:08.576Z,2.44
2023-05-01T10:09:08.630Z,2.61
2023-05-01T10:10:08.680Z,2.32
2023-05-01T10:11:08.737Z,2.05
2023-05-01T10:12:08.803Z,2.19
2023-05-01T10:13:08.836Z,2.46
2023-05-01T10:14:08.895Z,2.16
2023-05-01T10:15:23.955Z,2.14
2023-05-01T10:16:08.916Z,2.55
2023-05-01T10:17:09.113Z,2.60
2023-05-01T10:18:08.979Z,1.96
2023-05-01T10:19:08.920Z,2.21
2023-05-01T10:20:08.888Z,2.48
2023-05-01T10:21:08.872Z,2.43
2023-05-01T10:22:08.869Z,1.84
2023-05-01T10:23:08.867Z,2.05
2023-05-01T10:24:08.867Z,2.31
2023-05-01T10:25:08.840Z,2.11
2023-05-01T10:26:08.826Z,1.87
2023-05-01T10:27:08.834Z,2.30
2023-05-01T10:28:08.825Z,2.47
2023-05-01T10:29:08.791Z,2.24
2023-05-01T10:30:08.789Z,2.24
2023-05-01T10:31:08.833Z,2.01
2023-05-01T10:32:08.777Z,2.21
2023-05-01T10:33:08.822Z,1.88
2023-05-01T10:34:08.760Z,2.18
2023-05-01T10:35:08.762Z,2.16
2023-05-01T10:36:08.777Z,2.14
2023-05-01T10:37:08.832Z,2.55
2023-05-01T10:38:08.896Z,2.55
2023-05-01T10:39:08.942Z,2.41
2023-05-01T10:40:09.024Z,1.96
2023-05-01T10:41:09.088Z,2.24
2023-05-01T10:42:09.130Z,2.67
2023-05-01T10:43:09.199Z,2.26
2023-05-01T10:44:09.265Z,2.15
2023-05-01T10:45:09.331Z,2.24
2023-05-01T10:46:09.449Z,2.73
2023-05-01T10:47:09.422Z,2.51
2023-05-01T10:48:09.538Z,2.22
2023-05-01T10:49:09.583Z,2.19
2023-05-01T10:50:09.689Z,2.76
2023-05-01T10:51:09.705Z,2.51
2023-05-01T10:52:09.723Z,2.11
2023-05-01T10:53:09.813Z,2.31
2023-05-01T10:54:09.855Z,3.36
2023-05-01T10:55:09.923Z,2.39
2023-05-01T10:56:09.985Z,2.46
2023-05-01T10:57:10.029Z,2.15
2023-05-01T10:58:10.093Z,2.52
2023-05-01T10:59:10.156Z,2.24
2023-05-01T11:00:10.235Z,2.55
2023-05-01T11:01:10.276Z,2.45
2023-05-01T11:02:10.392Z,2.17
2023-05-01T11:03:10.411Z,1.89
2023-05-01T11:04:10.431Z,2.31
2023-05-01T11:05:10.528Z,2.43
2023-05-01T11:06:10.641Z,2.45
2023-05-01T11:07:10.841Z,2.79
2023-05-01T11:08:10.666Z,2.68
2023-05-01T11:09:10.714Z,2.25
2023-05-01T11:10:10.760Z,2.54
2023-05-01T11:11:11.044Z,2.27
2023-05-01T11:12:10.833Z,2.70
2023-05-01T11:13:10.858Z,2.49
2023-05-01T11:14:10.899Z,2.00
2023-05-01T11:15:10.926Z,2.39
2023-05-01T11:16:10.979Z,2.66
2023-05-01T11:17:10.999Z,2.26
2023-05-01T11:18:11.113Z,2.43
2023-05-01T11:19:11.095Z,2.53
2023-05-01T11:20:11.137Z,3.12
2023-05-01T11:21:11.120Z,2.77
2023-05-01T11:22:11.166Z,2.87
2023-05-01T11:23:11.254Z,2.53
2023-05-01T11:24:11.251Z,2.75
2023-05-01T11:25:11.323Z,2.59
2023-05-01T11:26:11.368Z,2.73
2023-05-01T11:27:11.399Z,2.92
2023-05-01T11:28:11.464Z,2.69
2023-05-01T11:29:11.521Z,2.88
2023-05-01T11:30:11.582Z,2.66
2023-05-01T11:31:11.688Z,2.73
2023-05-01T11:32:11.866Z,2.49
2023-05-01T11:33:11.791Z,2.65
2023-05-01T11:34:11.828Z,2.92
2023-05-01T11:35:11.884Z,2.78
2023-05-01T11:36:11.940Z,2.53
2023-05-01T11:37:11.993Z,2.48
2023-05-01T11:38:12.053Z,2.84
2023-05-01T11:39:12.171Z,2.22
2023-05-01T11:40:12.168Z,2.44
2023-05-01T11:41:12.229Z,3.06
2023-05-01T11:42:12.306Z,3.09
2023-05-01T11:43:12.317Z,2.29
2023-05-01T11:44:12.357Z,2.84
2023-05-01T11:45:12.417Z,2.36
2023-05-01T11:46:12.497Z,3.06
2023-05-01T11:47:12.526Z,2.62
2023-05-01T11:48:12.617Z,2.35
2023-05-01T11:49:12.655Z,2.68
2023-05-01T11:50:12.689Z,2.75
2023-05-01T11:51:12.754Z,2.51
2023-05-01T11:52:12.801Z,2.32
2023-05-01T11:53:12.848Z,2.68
2023-05-01T11:54:15.137Z,2.67
2023-05-01T11:55:12.910Z,2.73
2023-05-01T11:56:23.138Z,2.77
2023-05-01T11:57:12.861Z,2.36
2023-05-01T11:58:12.870Z,2.67
2023-05-01T11:59:12.845Z,2.64
2023-05-01T12:00:12.838Z,2.57
2023-05-01T12:01:12.833Z,2.51
2023-05-01T12:02:12.852Z,2.48
2023-05-01T12:03:13.117Z,2.60
2023-05-01T12:04:12.984Z,2.25
2023-05-01T12:05:12.796Z,2.77
2023-05-01T12:06:12.836Z,2.35
2023-05-01T12:07:12.781Z,2.17
2023-05-01T12:08:12.764Z,2.33
2023-05-01T12:09:12.754Z,2.52
2023-05-01T12:10:12.742Z,2.53
2023-05-01T12:11:12.844Z,2.35
2023-05-01T12:12:12.731Z,2.51
2023-05-01T12:13:12.710Z,2.29
2023-05-01T12:14:12.721Z,2.44
2023-05-01T12:15:12.687Z,2.65
2023-05-01T12:16:12.688Z,2.22
2023-05-01T12:17:12.719Z,2.49
2023-05-01T12:18:12.720Z,2.22
2023-05-01T12:19:12.724Z,2.40
2023-05-01T12:20:12.780Z,2.01
2023-05-01T12:21:12.831Z,2.49
2023-05-01T12:22:12.903Z,2.49
2023-05-01T12:23:12.960Z,2.23
2023-05-01T12:24:13.018Z,2.61
2023-05-01T12:25:13.052Z,2.52
2023-05-01T12:26:13.107Z,2.37
2023-05-01T12:27:13.192Z,2.85
2023-05-01T12:28:13.227Z,2.59
2023-05-01T12:29:13.290Z,1.98
2023-05-01T12:30:13.375Z,1.89
2023-05-01T12:31:13.493Z,2.82
2023-05-01T12:32:13.459Z,2.47
2023-05-01T12:33:13.554Z,2.12
2023-05-01T12:34:13.503Z,2.40
2023-05-01T12:35:13.536Z,2.18
2023-05-01T12:36:13.563Z,2.21
2023-05-01T12:37:13.588Z,2.31
2023-05-01T12:38:13.624Z,2.15
2023-05-01T12:39:13.697Z,2.23
2023-05-01T12:40:13.759Z,2.26
2023-05-01T12:41:13.776Z,2.11
2023-05-01T12:42:13.812Z,2.02
2023-05-01T12:43:13.898Z,2.11
2023-05-01T12:44:13.933Z,2.54
2023-05-01T12:45:13.994Z,2.64
2023-05-01T12:46:14.137Z,2.32
2023-05-01T12:47:14.109Z,2.72
2023-05-01T12:48:14.217Z,2.51
2023-05-01T12:49:14.192Z,1.97
2023-05-01T12:50:14.253Z,2.12
2023-05-01T12:51:14.325Z,2.38
2023-05-01T12:52:14.388Z,2.18
2023-05-01T12:53:14.450Z,2.51
2023-05-01T12:54:14.516Z,2.10
2023-05-01T12:55:14.570Z,2.29
2023-05-01T12:56:14.627Z,2.57
2023-05-01T12:57:14.788Z,2.25
2023-05-01T12:58:14.753Z,2.35
2023-05-01T12:59:14.918Z,2.07
2023-05-01T13:00:14.873Z,2.12
2023-05-01T13:01:14.980Z,2.37
2023-05-01T13:02:15.051Z,2.34
2023-05-01T13:03:15.221Z,1.98
2023-05-01T13:04:15.185Z,2.57
2023-05-01T13:05:15.163Z,2.07
2023-05-01T13:06:15.251Z,2.14
2023-05-01T13:07:15.333Z,2.02
2023-05-01T13:08:15.366Z,2.16
2023-05-01T13:09:15.414Z,2.27
2023-05-01T13:10:15.481Z,1.89
2023-05-01T13:11:15.542Z,2.17
2023-05-01T13:12:15.605Z,2.30
2023-05-01T13:13:15.734Z,2.31
2023-05-01T13:14:15.724Z,2.10
2023-05-01T13:15:15.808Z,2.34
2023-05-01T13:16:15.941Z,2.12
2023-05-01T13:17:15.899Z,2.20
2023-05-01T13:18:15.966Z,2.17
2023-05-01T13:19:16.022Z,2.26